MAPA DE AEROPUERTO

INFORMACIÓN METAR y TAF

METAR FOR ENVA
ADDS - METARS form results

(1158 UTC 11 April 2021)
Data provider http://aviationweather.gov/metar/data/
 
METAR text: ENVA 111150Z 28004KT CAVOK 05/M02 Q1020 NOSIG RMK WIND 670FT 30004KT
Conditions at: ENVA (TRONDHEIM/VAERNE, NO) observed 1150 UTC 11 April 2021
Temperature: 5.0°C (41°F)
Dewpoint: -2.0°C (28°F) [RH = 60%]
Pressure (altimeter): 30.12 inches Hg (1020.0 mb)
Winds: from the W (280 degrees) at 5 MPH (4 knots; 2.1 m/s)
Visibility: 6 or more miles (10+ km)
Ceiling: ceiling and visibility are OK
Clouds: unknown
Weather: no significant weather observed at this time

METAR text: ENVA 111120Z 31003KT 9999 SCT032 BKN061 06/M02 Q1020 NOSIG RMK WIND 670FT 35004KT
Conditions at: ENVA (TRONDHEIM/VAERNE, NO) observed 1120 UTC 11 April 2021
Temperature: 6.0°C (43°F)
Dewpoint: -2.0°C (28°F) [RH = 56%]
Pressure (altimeter): 30.12 inches Hg (1020.0 mb)
Winds: from the NW (310 degrees) at 3 MPH (3 knots; 1.5 m/s)
Visibility: 6 or more miles (10+ km)
Ceiling: 6100 feet AGL
Clouds: scattered clouds at 3200 feet AGL
broken clouds at 6100 feet AGL
Weather: no significant weather observed at this time

Forecast for: ENVA (TRONDHEIM/VAERNE, NO)
Text: TAF ENVA 1112/1212 VRB05KT 9999 FEW030 SCT050
Forecast period: 1200 UTC 11 April 2021 to 0900 UTC 12 April 2021
Forecast type: FROM: standard forecast or significant change
Winds: variable direction winds at 6 MPH (5 knots; 2.6 m/s)
Visibility: 6 or more miles (10+ km)
Ceiling: at least 12,000 feet AGL
Clouds: few clouds at 3000 feet AGL
scattered clouds at 5000 feet AGL
Weather: no significant weather forecast for this period
Text: BECMG 1209/1212 01010KT
Forecast period: 0900 to 1200 UTC 12 April 2021
Forecast type: BECOMING: Conditions expected to become as follows by 1200 UTC 12 April 2021
Winds: from the N (10 degrees) at 12 MPH (10 knots; 5.1 m/s)
Visibility: 6 or more miles (10+ km)
Ceiling: at least 12,000 feet AGL
Clouds: few clouds at 3000 feet AGL
scattered clouds at 5000 feet AGL
Weather: no significant weather forecast for this period